createdAt,value
2017-04-14T00:00:02.500Z,1002.48
2017-04-14T00:15:02.737Z,1002.41
2017-04-14T00:30:02.921Z,1002.35
2017-04-14T00:45:03.192Z,1002.39
2017-04-14T01:00:03.111Z,1002.29
2017-04-14T01:15:03.225Z,1002.12
2017-04-14T01:30:03.094Z,1002.12
2017-04-14T01:45:02.950Z,1002.16
2017-04-14T02:00:02.628Z,1002.16
2017-04-14T02:15:03.078Z,1002.21
2017-04-14T02:30:02.818Z,1002.4
2017-04-14T02:45:02.577Z,1002.34
2017-04-14T03:00:03.102Z,1002.35
2017-04-14T03:15:03.041Z,1002.41
2017-04-14T03:30:03.013Z,1002.51
2017-04-14T03:45:02.703Z,1002.58
2017-04-14T04:00:03.463Z,1002.51
2017-04-14T04:15:03.102Z,1002.41
2017-04-14T04:30:02.856Z,1002.44
2017-04-14T04:45:02.877Z,1002.56
2017-04-14T05:00:03.524Z,1002.62
2017-04-14T05:15:02.835Z,1002.77
2017-04-14T05:30:03.437Z,1002.88
2017-04-14T05:45:03.493Z,1003.03
2017-04-14T06:00:03.332Z,1003.05
2017-04-14T06:15:03.299Z,1003.08
2017-04-14T06:30:02.565Z,1003.07
2017-04-14T06:45:02.772Z,1003.22
2017-04-14T07:00:03.259Z,1003.03
2017-04-14T07:15:02.734Z,1003.11
2017-04-14T07:30:03.156Z,1003.08
2017-04-14T07:45:03.367Z,1002.95
2017-04-14T08:00:02.492Z,1003.07
2017-04-14T08:15:03.063Z,1003.16
2017-04-14T08:30:03.398Z,1003.16
2017-04-14T08:45:03.297Z,1003.14
2017-04-14T09:00:03.255Z,1003.16
2017-04-14T09:15:02.647Z,1002.95
2017-04-14T09:30:03.389Z,1002.46
2017-04-14T09:45:03.139Z,1002.91
2017-04-14T10:00:03.078Z,1002.61
2017-04-14T10:15:03.123Z,1002.85
2017-04-14T10:30:02.838Z,1002.74
2017-04-14T10:45:02.732Z,1002.78
2017-04-14T11:00:03.279Z,1002.72
2017-04-14T11:15:03.109Z,1002.64
2017-04-14T11:30:02.689Z,1002.72
2017-04-14T11:45:03.539Z,1002.6
2017-04-14T12:00:03.072Z,1002.69
2017-04-14T12:15:03.018Z,1002.65
2017-04-14T12:30:02.636Z,1002.6
2017-04-14T12:45:02.535Z,1002.69
2017-04-14T13:00:02.489Z,1002.66
2017-04-14T13:15:02.502Z,1002.74
2017-04-14T13:30:03.260Z,1002.6
2017-04-14T13:45:02.451Z,1002.5
2017-04-14T14:00:03.267Z,1002.4
2017-04-14T14:15:03.417Z,1002.32
2017-04-14T14:30:02.851Z,1002.45
2017-04-14T14:45:03.296Z,1002.41
2017-04-14T15:00:02.898Z,1002.44
2017-04-14T15:15:02.499Z,1002.36
2017-04-14T15:30:02.700Z,1002.41
2017-04-14T15:45:02.589Z,1002.28
2017-04-14T16:00:03.402Z,1002.19
2017-04-14T16:15:03.082Z,1002.18
2017-04-14T16:30:03.430Z,1002.24
2017-04-14T16:45:02.931Z,1002.34
2017-04-14T17:00:03.272Z,1002.3
2017-04-14T17:15:02.833Z,1002.31
2017-04-14T17:30:02.811Z,1002.28
2017-04-14T17:45:02.941Z,1002.35
2017-04-14T18:00:02.582Z,1002.25
2017-04-14T18:15:03.474Z,1002.39
2017-04-14T18:30:02.791Z,1002.29
2017-04-14T18:45:02.995Z,1002.32
2017-04-14T19:00:03.093Z,1002.38
2017-04-14T19:15:02.848Z,1002.45
2017-04-14T19:30:02.676Z,1002.67
2017-04-14T19:45:03.059Z,1002.64
2017-04-14T20:00:03.163Z,1002.47
2017-04-14T20:15:03.560Z,1002.5
2017-04-14T20:30:03.129Z,1002.4
2017-04-14T20:45:03.539Z,1002.36
2017-04-14T21:00:03.199Z,1002.31
2017-04-14T21:15:03.001Z,1002.26
2017-04-14T21:30:02.778Z,1002.1
2017-04-14T21:45:03.344Z,1002.08
2017-04-14T22:00:02.661Z,1001.8
2017-04-14T22:15:03.047Z,1001.73
2017-04-14T22:30:02.587Z,1001.8
2017-04-14T22:45:03.377Z,1001.67
2017-04-14T23:00:03.355Z,1001.63
2017-04-14T23:15:03.075Z,1001.55
2017-04-14T23:30:03.540Z,1001.32
2017-04-14T23:45:02.587Z,1001.17
